sensor_id;sensor_type;location;lat;lon;timestamp;temperature;humidity
8332;DHT22;4203;48.144;14.118;2022-08-11T00:02:32;16.00;99.90
8332;DHT22;4203;48.144;14.118;2022-08-11T00:05:04;15.90;99.90
8332;DHT22;4203;48.144;14.118;2022-08-11T00:07:34;15.90;99.90
8332;DHT22;4203;48.144;14.118;2022-08-11T00:10:10;15.90;99.90
8332;DHT22;4203;48.144;14.118;2022-08-11T00:12:38;15.90;99.90
8332;DHT22;4203;48.144;14.118;2022-08-11T00:15:07;15.90;99.90
8332;DHT22;4203;48.144;14.118;2022-08-11T00:17:35;15.90;99.90
8332;DHT22;4203;48.144;14.118;2022-08-11T00:20:07;15.90;99.90
8332;DHT22;4203;48.144;14.118;2022-08-11T00:22:37;15.90;99.90
8332;DHT22;4203;48.144;14.118;2022-08-11T00:25:09;15.90;99.90
8332;DHT22;4203;48.144;14.118;2022-08-11T00:27:38;15.90;99.90
8332;DHT22;4203;48.144;14.118;2022-08-11T00:30:08;15.90;99.90
8332;DHT22;4203;48.144;14.118;2022-08-11T00:32:38;15.90;99.90
8332;DHT22;4203;48.144;14.118;2022-08-11T00:35:16;15.90;99.90
8332;DHT22;4203;48.144;14.118;2022-08-11T00:37:47;15.90;99.90
8332;DHT22;4203;48.144;14.118;2022-08-11T00:40:22;15.80;99.90
8332;DHT22;4203;48.144;14.118;2022-08-11T00:42:57;15.80;99.90
8332;DHT22;4203;48.144;14.118;2022-08-11T00:45:30;15.80;99.90
8332;DHT22;4203;48.144;14.118;2022-08-11T00:48:04;15.80;99.90
8332;DHT22;4203;48.144;14.118;2022-08-11T00:50:45;15.80;99.90
8332;DHT22;4203;48.144;14.118;2022-08-11T00:53:38;15.80;99.90
8332;DHT22;4203;48.144;14.118;2022-08-11T00:59:39;15.70;99.90
8332;DHT22;4203;48.144;14.118;2022-08-11T01:02:17;15.60;99.90
8332;DHT22;4203;48.144;14.118;2022-08-11T01:08:22;15.50;99.90
8332;DHT22;4203;48.144;14.118;2022-08-11T01:20:51;15.30;99.90
8332;DHT22;4203;48.144;14.118;2022-08-11T01:36:39;14.90;99.90
8332;DHT22;4203;48.144;14.118;2022-08-11T01:39:39;14.80;99.90
8332;DHT22;4203;48.144;14.118;2022-08-11T01:42:49;14.70;99.90
8332;DHT22;4203;48.144;14.118;2022-08-11T01:45:39;14.60;99.90
8332;DHT22;4203;48.144;14.118;2022-08-11T01:48:15;14.40;99.90
8332;DHT22;4203;48.144;14.118;2022-08-11T01:51:04;14.30;99.90
8332;DHT22;4203;48.144;14.118;2022-08-11T01:53:50;14.20;99.90
8332;DHT22;4203;48.144;14.118;2022-08-11T01:56:37;14.10;99.90
8332;DHT22;4203;48.144;14.118;2022-08-11T01:59:16;14.00;99.90
8332;DHT22;4203;48.144;14.118;2022-08-11T02:02:08;14.10;99.90
8332;DHT22;4203;48.144;14.118;2022-08-11T02:04:40;14.10;99.90
8332;DHT22;4203;48.144;14.118;2022-08-11T02:07:18;14.00;99.90
8332;DHT22;4203;48.144;14.118;2022-08-11T02:10:06;14.00;99.90
8332;DHT22;4203;48.144;14.118;2022-08-11T02:12:53;13.90;99.90
8332;DHT22;4203;48.144;14.118;2022-08-11T02:15:27;13.80;99.90
8332;DHT22;4203;48.144;14.118;2022-08-11T02:18:04;13.70;99.90
8332;DHT22;4203;48.144;14.118;2022-08-11T02:20:40;13.60;99.90
8332;DHT22;4203;48.144;14.118;2022-08-11T02:23:32;13.60;99.90
8332;DHT22;4203;48.144;14.118;2022-08-11T02:26:12;13.60;99.90
8332;DHT22;4203;48.144;14.118;2022-08-11T02:29:03;13.50;99.90
8332;DHT22;4203;48.144;14.118;2022-08-11T02:31:41;13.60;99.90
8332;DHT22;4203;48.144;14.118;2022-08-11T02:34:46;13.50;99.90
8332;DHT22;4203;48.144;14.118;2022-08-11T02:37:20;13.50;99.90
8332;DHT22;4203;48.144;14.118;2022-08-11T02:40:06;13.50;99.90
8332;DHT22;4203;48.144;14.118;2022-08-11T02:42:52;13.40;99.90
8332;DHT22;4203;48.144;14.118;2022-08-11T02:45:50;13.40;99.90
8332;DHT22;4203;48.144;14.118;2022-08-11T02:48:29;13.30;99.90
8332;DHT22;4203;48.144;14.118;2022-08-11T02:51:26;13.20;99.90
8332;DHT22;4203;48.144;14.118;2022-08-11T02:54:01;13.20;99.90
8332;DHT22;4203;48.144;14.118;2022-08-11T02:56:44;13.20;99.90
8332;DHT22;4203;48.144;14.118;2022-08-11T02:59:23;13.10;99.90
8332;DHT22;4203;48.144;14.118;2022-08-11T03:02:15;13.10;99.90
8332;DHT22;4203;48.144;14.118;2022-08-11T03:04:54;13.10;99.90
8332;DHT22;4203;48.144;14.118;2022-08-11T03:07:28;13.10;99.90
8332;DHT22;4203;48.144;14.118;2022-08-11T03:10:04;13.10;99.90
8332;DHT22;4203;48.144;14.118;2022-08-11T03:12:43;13.00;99.90
8332;DHT22;4203;48.144;14.118;2022-08-11T03:15:37;13.00;99.90
8332;DHT22;4203;48.144;14.118;2022-08-11T03:18:31;13.00;99.90
8332;DHT22;4203;48.144;14.118;2022-08-11T03:21:06;12.90;99.90
8332;DHT22;4203;48.144;14.118;2022-08-11T03:23:40;12.90;99.90
8332;DHT22;4203;48.144;14.118;2022-08-11T03:26:20;12.90;99.90
8332;DHT22;4203;48.144;14.118;2022-08-11T03:28:57;13.00;99.90
8332;DHT22;4203;48.144;14.118;2022-08-11T03:31:31;13.00;99.90
8332;DHT22;4203;48.144;14.118;2022-08-11T03:34:03;13.10;99.90
8332;DHT22;4203;48.144;14.118;2022-08-11T03:36:53;13.10;99.90
8332;DHT22;4203;48.144;14.118;2022-08-11T03:39:31;13.20;99.90
8332;DHT22;4203;48.144;14.118;2022-08-11T03:42:11;13.30;99.90
8332;DHT22;4203;48.144;14.118;2022-08-11T03:44:55;13.30;99.90
8332;DHT22;4203;48.144;14.118;2022-08-11T03:47:36;13.30;99.90
8332;DHT22;4203;48.144;14.118;2022-08-11T03:50:15;13.40;99.90
8332;DHT22;4203;48.144;14.118;2022-08-11T03:52:57;13.40;99.90
8332;DHT22;4203;48.144;14.118;2022-08-11T03:55:38;13.50;99.90
8332;DHT22;4203;48.144;14.118;2022-08-11T03:58:34;13.60;99.90
8332;DHT22;4203;48.144;14.118;2022-08-11T04:01:33;13.60;99.90
8332;DHT22;4203;48.144;14.118;2022-08-11T04:04:49;13.70;99.90
8332;DHT22;4203;48.144;14.118;2022-08-11T04:14:11;13.80;99.90
8332;DHT22;4203;48.144;14.118;2022-08-11T04:17:22;13.80;99.90
8332;DHT22;4203;48.144;14.118;2022-08-11T04:20:22;13.90;99.90
8332;DHT22;4203;48.144;14.118;2022-08-11T04:23:17;14.00;99.90
8332;DHT22;4203;48.144;14.118;2022-08-11T04:26:05;14.00;99.90
8332;DHT22;4203;48.144;14.118;2022-08-11T04:28:50;14.10;99.90
8332;DHT22;4203;48.144;14.118;2022-08-11T04:31:35;14.20;99.90
8332;DHT22;4203;48.144;14.118;2022-08-11T04:40:42;14.70;99.90
8332;DHT22;4203;48.144;14.118;2022-08-11T04:43:44;14.80;99.90
8332;DHT22;4203;48.144;14.118;2022-08-11T04:46:50;15.00;99.90
8332;DHT22;4203;48.144;14.118;2022-08-11T04:53:05;15.20;99.90
8332;DHT22;4203;48.144;14.118;2022-08-11T04:59:32;15.50;99.90
8332;DHT22;4203;48.144;14.118;2022-08-11T05:05:35;15.80;99.90
8332;DHT22;4203;48.144;14.118;2022-08-11T05:12:01;16.10;99.90
8332;DHT22;4203;48.144;14.118;2022-08-11T05:14:33;16.20;99.90
8332;DHT22;4203;48.144;14.118;2022-08-11T05:17:27;16.30;99.90
8332;DHT22;4203;48.144;14.118;2022-08-11T05:20:14;16.50;99.90
8332;DHT22;4203;48.144;14.118;2022-08-11T05:23:03;16.60;99.90
8332;DHT22;4203;48.144;14.118;2022-08-11T05:25:51;16.70;99.90
8332;DHT22;4203;48.144;14.118;2022-08-11T05:28:41;16.90;99.90
8332;DHT22;4203;48.144;14.118;2022-08-11T05:31:34;17.00;99.90
8332;DHT22;4203;48.144;14.118;2022-08-11T05:34:23;17.10;99.90
8332;DHT22;4203;48.144;14.118;2022-08-11T05:37:11;17.20;99.90
8332;DHT22;4203;48.144;14.118;2022-08-11T05:39:44;17.40;99.90
8332;DHT22;4203;48.144;14.118;2022-08-11T05:42:31;17.50;99.90
8332;DHT22;4203;48.144;14.118;2022-08-11T05:45:18;17.70;99.90
8332;DHT22;4203;48.144;14.118;2022-08-11T05:48:04;17.90;99.90
8332;DHT22;4203;48.144;14.118;2022-08-11T05:50:53;18.00;99.90
8332;DHT22;4203;48.144;14.118;2022-08-11T05:53:47;18.20;99.90
8332;DHT22;4203;48.144;14.118;2022-08-11T05:56:39;18.30;99.90
8332;DHT22;4203;48.144;14.118;2022-08-11T05:59:12;18.50;99.90
8332;DHT22;4203;48.144;14.118;2022-08-11T06:01:42;18.60;99.90
8332;DHT22;4203;48.144;14.118;2022-08-11T06:04:20;18.70;99.90
8332;DHT22;4203;48.144;14.118;2022-08-11T06:06:56;18.90;99.90
8332;DHT22;4203;48.144;14.118;2022-08-11T06:09:26;19.00;99.90
8332;DHT22;4203;48.144;14.118;2022-08-11T06:11:57;19.20;99.90
8332;DHT22;4203;48.144;14.118;2022-08-11T06:14:26;19.30;99.90
8332;DHT22;4203;48.144;14.118;2022-08-11T06:16:58;19.40;99.90
8332;DHT22;4203;48.144;14.118;2022-08-11T06:19:33;19.60;99.90
8332;DHT22;4203;48.144;14.118;2022-08-11T06:22:02;19.70;99.90
8332;DHT22;4203;48.144;14.118;2022-08-11T06:24:30;19.80;99.90
8332;DHT22;4203;48.144;14.118;2022-08-11T06:26:58;20.00;99.90
8332;DHT22;4203;48.144;14.118;2022-08-11T06:29:27;20.20;99.90
8332;DHT22;4203;48.144;14.118;2022-08-11T06:31:57;20.40;99.90
8332;DHT22;4203;48.144;14.118;2022-08-11T06:34:36;20.50;99.90
8332;DHT22;4203;48.144;14.118;2022-08-11T06:37:15;20.70;99.90
8332;DHT22;4203;48.144;14.118;2022-08-11T06:39:51;20.90;99.90
8332;DHT22;4203;48.144;14.118;2022-08-11T06:42:34;21.10;99.90
8332;DHT22;4203;48.144;14.118;2022-08-11T06:45:08;21.30;99.90
8332;DHT22;4203;48.144;14.118;2022-08-11T06:47:44;21.50;99.90
8332;DHT22;4203;48.144;14.118;2022-08-11T06:50:16;21.70;99.90
8332;DHT22;4203;48.144;14.118;2022-08-11T06:53:03;21.90;99.90
8332;DHT22;4203;48.144;14.118;2022-08-11T06:55:33;22.00;99.90
8332;DHT22;4203;48.144;14.118;2022-08-11T06:58:20;22.30;99.90
8332;DHT22;4203;48.144;14.118;2022-08-11T07:01:11;22.50;99.90
8332;DHT22;4203;48.144;14.118;2022-08-11T07:03:44;22.60;99.90
8332;DHT22;4203;48.144;14.118;2022-08-11T07:06:27;22.80;99.90
8332;DHT22;4203;48.144;14.118;2022-08-11T07:09:32;23.10;99.90
8332;DHT22;4203;48.144;14.118;2022-08-11T07:12:39;23.30;99.90
8332;DHT22;4203;48.144;14.118;2022-08-11T07:15:30;23.40;99.90
8332;DHT22;4203;48.144;14.118;2022-08-11T07:18:21;23.50;99.90
8332;DHT22;4203;48.144;14.118;2022-08-11T07:21:14;23.50;99.90
8332;DHT22;4203;48.144;14.118;2022-08-11T07:24:01;23.50;99.90
8332;DHT22;4203;48.144;14.118;2022-08-11T07:26:49;23.70;99.90
8332;DHT22;4203;48.144;14.118;2022-08-11T07:29:36;23.90;99.90
8332;DHT22;4203;48.144;14.118;2022-08-11T07:32:14;24.10;99.90
8332;DHT22;4203;48.144;14.118;2022-08-11T07:34:49;24.30;99.90
8332;DHT22;4203;48.144;14.118;2022-08-11T07:37:22;24.10;99.90
8332;DHT22;4203;48.144;14.118;2022-08-11T07:39:51;24.30;99.90
8332;DHT22;4203;48.144;14.118;2022-08-11T07:42:22;24.10;99.90
8332;DHT22;4203;48.144;14.118;2022-08-11T07:44:51;24.10;99.90
8332;DHT22;4203;48.144;14.118;2022-08-11T07:47:38;24.20;99.90
8332;DHT22;4203;48.144;14.118;2022-08-11T07:50:23;24.50;99.90
8332;DHT22;4203;48.144;14.118;2022-08-11T07:53:10;24.50;99.90
8332;DHT22;4203;48.144;14.118;2022-08-11T07:55:39;24.50;99.90
8332;DHT22;4203;48.144;14.118;2022-08-11T07:58:07;24.60;99.90
8332;DHT22;4203;48.144;14.118;2022-08-11T08:00:54;25.00;99.90
8332;DHT22;4203;48.144;14.118;2022-08-11T08:03:40;25.40;99.90
8332;DHT22;4203;48.144;14.118;2022-08-11T08:06:27;25.70;99.90
8332;DHT22;4203;48.144;14.118;2022-08-11T08:09:15;25.60;99.90
8332;DHT22;4203;48.144;14.118;2022-08-11T08:12:03;25.30;99.90
8332;DHT22;4203;48.144;14.118;2022-08-11T08:14:48;25.20;99.70
8332;DHT22;4203;48.144;14.118;2022-08-11T08:17:33;25.30;99.90
8332;DHT22;4203;48.144;14.118;2022-08-11T08:20:24;25.40;99.90
8332;DHT22;4203;48.144;14.118;2022-08-11T08:22:55;25.60;99.10
8332;DHT22;4203;48.144;14.118;2022-08-11T08:25:25;25.90;99.60
8332;DHT22;4203;48.144;14.118;2022-08-11T08:27:54;26.10;99.90
8332;DHT22;4203;48.144;14.118;2022-08-11T08:30:23;26.20;97.20
8332;DHT22;4203;48.144;14.118;2022-08-11T08:33:11;26.20;99.90
8332;DHT22;4203;48.144;14.118;2022-08-11T08:35:40;26.40;97.50
8332;DHT22;4203;48.144;14.118;2022-08-11T08:38:09;26.60;99.10
8332;DHT22;4203;48.144;14.118;2022-08-11T08:40:41;26.80;97.10
8332;DHT22;4203;48.144;14.118;2022-08-11T08:43:11;26.90;97.90
8332;DHT22;4203;48.144;14.118;2022-08-11T08:45:41;26.90;95.90
8332;DHT22;4203;48.144;14.118;2022-08-11T08:48:12;26.60;95.60
8332;DHT22;4203;48.144;14.118;2022-08-11T08:50:46;26.20;96.70
8332;DHT22;4203;48.144;14.118;2022-08-11T08:53:34;26.40;97.90
8332;DHT22;4203;48.144;14.118;2022-08-11T08:56:04;26.70;95.20
8332;DHT22;4203;48.144;14.118;2022-08-11T08:58:34;27.00;98.60
8332;DHT22;4203;48.144;14.118;2022-08-11T09:01:03;27.30;93.90
8332;DHT22;4203;48.144;14.118;2022-08-11T09:03:30;27.20;95.10
8332;DHT22;4203;48.144;14.118;2022-08-11T09:06:02;27.00;93.50
8332;DHT22;4203;48.144;14.118;2022-08-11T09:08:30;27.00;94.70
8332;DHT22;4203;48.144;14.118;2022-08-11T09:11:00;27.00;94.80
8332;DHT22;4203;48.144;14.118;2022-08-11T09:13:46;27.10;92.50
8332;DHT22;4203;48.144;14.118;2022-08-11T09:16:15;27.30;94.70
8332;DHT22;4203;48.144;14.118;2022-08-11T09:18:42;27.50;93.10
8332;DHT22;4203;48.144;14.118;2022-08-11T09:21:11;27.60;92.80
8332;DHT22;4203;48.144;14.118;2022-08-11T09:23:41;27.60;91.00
8332;DHT22;4203;48.144;14.118;2022-08-11T09:26:26;27.60;92.50
8332;DHT22;4203;48.144;14.118;2022-08-11T09:29:13;27.70;90.80
8332;DHT22;4203;48.144;14.118;2022-08-11T09:31:41;27.80;91.10
8332;DHT22;4203;48.144;14.118;2022-08-11T09:34:09;27.70;91.50
8332;DHT22;4203;48.144;14.118;2022-08-11T09:36:39;27.60;90.50
8332;DHT22;4203;48.144;14.118;2022-08-11T09:39:24;27.90;93.20
8332;DHT22;4203;48.144;14.118;2022-08-11T09:42:10;28.20;91.30
8332;DHT22;4203;48.144;14.118;2022-08-11T09:44:40;28.60;92.00
8332;DHT22;4203;48.144;14.118;2022-08-11T09:47:19;28.70;87.60
8332;DHT22;4203;48.144;14.118;2022-08-11T09:49:51;28.40;90.90
8332;DHT22;4203;48.144;14.118;2022-08-11T09:52:19;28.70;90.00
8332;DHT22;4203;48.144;14.118;2022-08-11T09:54:48;28.70;87.50
8332;DHT22;4203;48.144;14.118;2022-08-11T09:57:18;28.60;91.30
8332;DHT22;4203;48.144;14.118;2022-08-11T10:00:08;28.70;92.20
8332;DHT22;4203;48.144;14.118;2022-08-11T10:02:40;29.10;88.00
8332;DHT22;4203;48.144;14.118;2022-08-11T10:05:09;29.30;90.10
8332;DHT22;4203;48.144;14.118;2022-08-11T10:07:54;29.60;91.00
8332;DHT22;4203;48.144;14.118;2022-08-11T10:10:22;29.70;90.20
8332;DHT22;4203;48.144;14.118;2022-08-11T10:12:55;29.60;90.90
8332;DHT22;4203;48.144;14.118;2022-08-11T10:15:27;29.60;85.60
8332;DHT22;4203;48.144;14.118;2022-08-11T10:18:05;29.60;88.20
8332;DHT22;4203;48.144;14.118;2022-08-11T10:20:51;29.40;86.50
8332;DHT22;4203;48.144;14.118;2022-08-11T10:23:20;29.40;88.40
8332;DHT22;4203;48.144;14.118;2022-08-11T10:26:06;29.50;90.90
8332;DHT22;4203;48.144;14.118;2022-08-11T10:28:57;29.70;91.60
8332;DHT22;4203;48.144;14.118;2022-08-11T10:31:27;30.20;91.10
8332;DHT22;4203;48.144;14.118;2022-08-11T10:34:13;30.30;90.90
8332;DHT22;4203;48.144;14.118;2022-08-11T10:36:43;30.40;87.20
8332;DHT22;4203;48.144;14.118;2022-08-11T10:39:14;30.40;89.50
8332;DHT22;4203;48.144;14.118;2022-08-11T10:41:43;30.50;88.40
8332;DHT22;4203;48.144;14.118;2022-08-11T10:44:34;30.40;84.20
8332;DHT22;4203;48.144;14.118;2022-08-11T10:47:04;30.50;85.80
8332;DHT22;4203;48.144;14.118;2022-08-11T10:49:51;30.60;85.10
8332;DHT22;4203;48.144;14.118;2022-08-11T10:52:39;30.70;88.10
8332;DHT22;4203;48.144;14.118;2022-08-11T10:55:25;30.80;85.60
8332;DHT22;4203;48.144;14.118;2022-08-11T10:58:11;30.70;86.00
8332;DHT22;4203;48.144;14.118;2022-08-11T11:00:56;30.90;92.40
8332;DHT22;4203;48.144;14.118;2022-08-11T11:03:28;31.30;91.70
8332;DHT22;4203;48.144;14.118;2022-08-11T11:06:02;31.50;90.00
8332;DHT22;4203;48.144;14.118;2022-08-11T11:08:36;31.60;88.50
8332;DHT22;4203;48.144;14.118;2022-08-11T11:11:21;31.60;86.20
8332;DHT22;4203;48.144;14.118;2022-08-11T11:14:09;31.60;90.90
8332;DHT22;4203;48.144;14.118;2022-08-11T11:16:56;31.70;86.10
8332;DHT22;4203;48.144;14.118;2022-08-11T11:19:42;31.90;87.40
8332;DHT22;4203;48.144;14.118;2022-08-11T11:22:11;32.10;81.40
8332;DHT22;4203;48.144;14.118;2022-08-11T11:25:04;32.20;88.90
8332;DHT22;4203;48.144;14.118;2022-08-11T11:27:44;32.20;86.40
8332;DHT22;4203;48.144;14.118;2022-08-11T11:30:14;32.20;85.10
8332;DHT22;4203;48.144;14.118;2022-08-11T11:33:01;32.10;90.20
8332;DHT22;4203;48.144;14.118;2022-08-11T11:35:40;32.10;86.70
8332;DHT22;4203;48.144;14.118;2022-08-11T11:38:14;32.20;89.50
8332;DHT22;4203;48.144;14.118;2022-08-11T11:40:43;32.30;85.70
8332;DHT22;4203;48.144;14.118;2022-08-11T11:43:32;32.50;86.90
8332;DHT22;4203;48.144;14.118;2022-08-11T11:46:02;32.60;84.50
8332;DHT22;4203;48.144;14.118;2022-08-11T11:48:31;32.80;77.60
8332;DHT22;4203;48.144;14.118;2022-08-11T11:51:01;32.20;90.60
8332;DHT22;4203;48.144;14.118;2022-08-11T11:53:28;32.20;87.00
8332;DHT22;4203;48.144;14.118;2022-08-11T11:55:57;32.30;85.10
8332;DHT22;4203;48.144;14.118;2022-08-11T11:58:26;32.40;87.00
8332;DHT22;4203;48.144;14.118;2022-08-11T12:01:12;32.40;81.80
8332;DHT22;4203;48.144;14.118;2022-08-11T12:03:46;32.40;81.40
8332;DHT22;4203;48.144;14.118;2022-08-11T12:06:18;32.60;87.20
8332;DHT22;4203;48.144;14.118;2022-08-11T12:08:48;32.70;77.70
8332;DHT22;4203;48.144;14.118;2022-08-11T12:11:19;32.80;81.70
8332;DHT22;4203;48.144;14.118;2022-08-11T12:14:06;32.80;76.70
8332;DHT22;4203;48.144;14.118;2022-08-11T12:16:36;32.60;79.60
8332;DHT22;4203;48.144;14.118;2022-08-11T12:19:05;32.60;79.00
8332;DHT22;4203;48.144;14.118;2022-08-11T12:21:34;32.60;79.20
8332;DHT22;4203;48.144;14.118;2022-08-11T12:24:03;32.70;83.00
8332;DHT22;4203;48.144;14.118;2022-08-11T12:26:48;32.90;74.70
8332;DHT22;4203;48.144;14.118;2022-08-11T12:29:33;32.90;76.40
8332;DHT22;4203;48.144;14.118;2022-08-11T12:32:00;32.90;75.40
8332;DHT22;4203;48.144;14.118;2022-08-11T12:34:28;33.00;77.90
8332;DHT22;4203;48.144;14.118;2022-08-11T12:36:58;33.20;78.90
8332;DHT22;4203;48.144;14.118;2022-08-11T12:39:32;33.20;75.20
8332;DHT22;4203;48.144;14.118;2022-08-11T12:42:16;33.10;77.50
8332;DHT22;4203;48.144;14.118;2022-08-11T12:45:02;33.00;73.20
8332;DHT22;4203;48.144;14.118;2022-08-11T12:47:52;33.10;79.80
8332;DHT22;4203;48.144;14.118;2022-08-11T12:50:41;33.20;78.20
8332;DHT22;4203;48.144;14.118;2022-08-11T12:53:29;33.20;79.40
8332;DHT22;4203;48.144;14.118;2022-08-11T12:56:02;33.50;82.80
8332;DHT22;4203;48.144;14.118;2022-08-11T12:58:48;33.50;78.10
8332;DHT22;4203;48.144;14.118;2022-08-11T13:01:17;33.50;74.60
8332;DHT22;4203;48.144;14.118;2022-08-11T13:04:02;33.50;74.40
8332;DHT22;4203;48.144;14.118;2022-08-11T13:06:48;33.60;75.60
8332;DHT22;4203;48.144;14.118;2022-08-11T13:09:19;33.50;73.10
8332;DHT22;4203;48.144;14.118;2022-08-11T13:11:47;33.40;70.80
8332;DHT22;4203;48.144;14.118;2022-08-11T13:14:32;33.20;72.50
8332;DHT22;4203;48.144;14.118;2022-08-11T13:17:00;33.10;69.40
8332;DHT22;4203;48.144;14.118;2022-08-11T13:19:44;33.20;72.30
8332;DHT22;4203;48.144;14.118;2022-08-11T13:22:15;33.30;78.90
8332;DHT22;4203;48.144;14.118;2022-08-11T13:24:45;33.20;70.60
8332;DHT22;4203;48.144;14.118;2022-08-11T13:27:16;32.90;68.80
8332;DHT22;4203;48.144;14.118;2022-08-11T13:29:46;32.80;73.80
8332;DHT22;4203;48.144;14.118;2022-08-11T13:32:15;32.80;70.10
8332;DHT22;4203;48.144;14.118;2022-08-11T13:34:44;32.90;69.40
8332;DHT22;4203;48.144;14.118;2022-08-11T13:37:13;32.90;71.00
8332;DHT22;4203;48.144;14.118;2022-08-11T13:39:43;32.80;71.90
8332;DHT22;4203;48.144;14.118;2022-08-11T13:42:13;32.70;71.00
8332;DHT22;4203;48.144;14.118;2022-08-11T13:44:41;32.50;71.50
8332;DHT22;4203;48.144;14.118;2022-08-11T13:47:12;32.40;70.70
8332;DHT22;4203;48.144;14.118;2022-08-11T13:49:40;32.40;70.60
8332;DHT22;4203;48.144;14.118;2022-08-11T13:52:10;32.30;70.80
8332;DHT22;4203;48.144;14.118;2022-08-11T13:54:40;31.90;72.20
8332;DHT22;4203;48.144;14.118;2022-08-11T13:57:11;31.90;68.20
8332;DHT22;4203;48.144;14.118;2022-08-11T13:59:41;31.90;71.50
8332;DHT22;4203;48.144;14.118;2022-08-11T14:02:12;31.80;68.30
8332;DHT22;4203;48.144;14.118;2022-08-11T14:04:44;31.70;71.90
8332;DHT22;4203;48.144;14.118;2022-08-11T14:07:17;31.70;74.40
8332;DHT22;4203;48.144;14.118;2022-08-11T14:09:47;31.80;76.40
8332;DHT22;4203;48.144;14.118;2022-08-11T14:12:21;31.80;76.60
8332;DHT22;4203;48.144;14.118;2022-08-11T14:15:10;31.70;73.40
8332;DHT22;4203;48.144;14.118;2022-08-11T14:17:47;31.60;76.10
8332;DHT22;4203;48.144;14.118;2022-08-11T14:20:18;31.60;73.00
8332;DHT22;4203;48.144;14.118;2022-08-11T14:22:46;31.50;69.70
8332;DHT22;4203;48.144;14.118;2022-08-11T14:25:14;31.40;71.40
8332;DHT22;4203;48.144;14.118;2022-08-11T14:27:44;31.20;67.70
8332;DHT22;4203;48.144;14.118;2022-08-11T14:30:14;31.00;71.90
8332;DHT22;4203;48.144;14.118;2022-08-11T14:32:56;30.90;71.00
8332;DHT22;4203;48.144;14.118;2022-08-11T14:35:24;30.70;70.60
8332;DHT22;4203;48.144;14.118;2022-08-11T14:37:53;30.60;73.20
8332;DHT22;4203;48.144;14.118;2022-08-11T14:40:22;30.40;70.50
8332;DHT22;4203;48.144;14.118;2022-08-11T14:43:08;30.30;74.70
8332;DHT22;4203;48.144;14.118;2022-08-11T14:45:55;30.10;73.00
8332;DHT22;4203;48.144;14.118;2022-08-11T14:48:41;30.00;65.60
8332;DHT22;4203;48.144;14.118;2022-08-11T14:51:08;29.80;70.00
8332;DHT22;4203;48.144;14.118;2022-08-11T14:53:35;29.70;67.20
8332;DHT22;4203;48.144;14.118;2022-08-11T14:56:04;29.50;69.50
8332;DHT22;4203;48.144;14.118;2022-08-11T14:58:51;29.40;72.30
8332;DHT22;4203;48.144;14.118;2022-08-11T15:01:18;29.20;71.00
8332;DHT22;4203;48.144;14.118;2022-08-11T15:04:03;29.10;71.70
8332;DHT22;4203;48.144;14.118;2022-08-11T15:06:30;28.90;71.00
8332;DHT22;4203;48.144;14.118;2022-08-11T15:08:58;28.80;75.70
8332;DHT22;4203;48.144;14.118;2022-08-11T15:11:29;28.80;74.80
8332;DHT22;4203;48.144;14.118;2022-08-11T15:14:17;28.60;71.90
8332;DHT22;4203;48.144;14.118;2022-08-11T15:17:05;28.70;72.70
8332;DHT22;4203;48.144;14.118;2022-08-11T15:19:39;28.60;67.10
8332;DHT22;4203;48.144;14.118;2022-08-11T15:22:29;28.40;71.20
8332;DHT22;4203;48.144;14.118;2022-08-11T15:25:14;28.30;66.60
8332;DHT22;4203;48.144;14.118;2022-08-11T15:27:46;28.20;70.60
8332;DHT22;4203;48.144;14.118;2022-08-11T15:30:34;28.00;72.20
8332;DHT22;4203;48.144;14.118;2022-08-11T15:33:21;27.80;71.20
8332;DHT22;4203;48.144;14.118;2022-08-11T15:36:08;27.70;72.80
8332;DHT22;4203;48.144;14.118;2022-08-11T15:38:56;27.40;74.40
8332;DHT22;4203;48.144;14.118;2022-08-11T15:41:31;27.40;73.30
8332;DHT22;4203;48.144;14.118;2022-08-11T15:44:19;27.20;75.40
8332;DHT22;4203;48.144;14.118;2022-08-11T15:47:26;27.00;75.60
8332;DHT22;4203;48.144;14.118;2022-08-11T15:49:58;27.00;78.50
8332;DHT22;4203;48.144;14.118;2022-08-11T15:52:31;27.10;78.30
8332;DHT22;4203;48.144;14.118;2022-08-11T15:54:59;27.10;76.90
8332;DHT22;4203;48.144;14.118;2022-08-11T15:57:28;27.20;77.20
8332;DHT22;4203;48.144;14.118;2022-08-11T16:00:10;27.20;73.30
8332;DHT22;4203;48.144;14.118;2022-08-11T16:02:57;27.10;76.40
8332;DHT22;4203;48.144;14.118;2022-08-11T16:05:43;27.00;72.80
8332;DHT22;4203;48.144;14.118;2022-08-11T16:08:15;26.90;73.80
8332;DHT22;4203;48.144;14.118;2022-08-11T16:10:44;27.00;70.90
8332;DHT22;4203;48.144;14.118;2022-08-11T16:13:13;27.00;73.40
8332;DHT22;4203;48.144;14.118;2022-08-11T16:16:00;27.00;74.40
8332;DHT22;4203;48.144;14.118;2022-08-11T16:18:44;27.00;73.10
8332;DHT22;4203;48.144;14.118;2022-08-11T16:21:17;27.00;77.30
8332;DHT22;4203;48.144;14.118;2022-08-11T16:23:46;27.00;78.40
8332;DHT22;4203;48.144;14.118;2022-08-11T16:26:17;27.00;77.90
8332;DHT22;4203;48.144;14.118;2022-08-11T16:28:48;26.90;75.20
8332;DHT22;4203;48.144;14.118;2022-08-11T16:31:17;26.90;76.60
8332;DHT22;4203;48.144;14.118;2022-08-11T16:33:47;26.80;76.00
8332;DHT22;4203;48.144;14.118;2022-08-11T16:36:16;26.60;76.10
8332;DHT22;4203;48.144;14.118;2022-08-11T16:39:02;26.50;73.50
8332;DHT22;4203;48.144;14.118;2022-08-11T16:41:32;26.50;73.00
8332;DHT22;4203;48.144;14.118;2022-08-11T16:44:18;26.50;74.20
8332;DHT22;4203;48.144;14.118;2022-08-11T16:47:05;26.50;75.30
8332;DHT22;4203;48.144;14.118;2022-08-11T16:49:36;26.50;74.90
8332;DHT22;4203;48.144;14.118;2022-08-11T16:52:05;26.40;73.20
8332;DHT22;4203;48.144;14.118;2022-08-11T16:54:37;26.30;73.60
8332;DHT22;4203;48.144;14.118;2022-08-11T16:57:07;26.30;73.10
8332;DHT22;4203;48.144;14.118;2022-08-11T16:59:53;26.20;76.00
8332;DHT22;4203;48.144;14.118;2022-08-11T17:02:24;26.10;77.40
8332;DHT22;4203;48.144;14.118;2022-08-11T17:05:14;25.90;79.50
8332;DHT22;4203;48.144;14.118;2022-08-11T17:08:01;25.90;75.40
8332;DHT22;4203;48.144;14.118;2022-08-11T17:10:57;25.80;76.50
8332;DHT22;4203;48.144;14.118;2022-08-11T17:13:45;25.60;76.80
8332;DHT22;4203;48.144;14.118;2022-08-11T17:16:16;25.50;76.90
8332;DHT22;4203;48.144;14.118;2022-08-11T17:18:51;25.40;77.90
8332;DHT22;4203;48.144;14.118;2022-08-11T17:21:24;25.30;77.90
8332;DHT22;4203;48.144;14.118;2022-08-11T17:23:54;25.30;78.10
8332;DHT22;4203;48.144;14.118;2022-08-11T17:26:32;25.20;78.50
8332;DHT22;4203;48.144;14.118;2022-08-11T17:29:13;25.10;76.90
8332;DHT22;4203;48.144;14.118;2022-08-11T17:31:41;25.00;80.20
8332;DHT22;4203;48.144;14.118;2022-08-11T17:34:26;24.90;82.80
8332;DHT22;4203;48.144;14.118;2022-08-11T17:37:14;24.90;78.70
8332;DHT22;4203;48.144;14.118;2022-08-11T17:39:42;24.80;78.60
8332;DHT22;4203;48.144;14.118;2022-08-11T17:42:11;24.60;77.20
8332;DHT22;4203;48.144;14.118;2022-08-11T17:44:57;24.60;79.90
8332;DHT22;4203;48.144;14.118;2022-08-11T17:47:42;24.40;77.20
8332;DHT22;4203;48.144;14.118;2022-08-11T17:50:27;24.30;81.20
8332;DHT22;4203;48.144;14.118;2022-08-11T17:52:57;24.20;79.90
8332;DHT22;4203;48.144;14.118;2022-08-11T17:55:44;24.10;80.30